Terminal Aerodrome Forecast
Issued by NWS

Home | Current Version | Previous Version | Text Only | Print | Product List | Glossary On
Versions: 1 2 3 4 5 6 7 8 9 10 11 12 13 14 15 16 17
000
FTUS46 KHNX 222325
TAFVIS
TAF
KVIS 222325Z 2300/2324 24005KT P6SM BKN030 OVC040
     FM230400 VRB03KT 3SM BR SCT007
     FM230800 00000KT 2SM BR BKN005
      TEMPO 2310/2314 1/2SM FG VV002
     FM231900 VRB03KT 3SM BR FEW005=

USA.gov is the U.S. government's official web portal to all federal, state and local government web resources and services.